createdAt,value
2023-02-02T00:01:39.107Z,32.85
2023-02-02T00:04:07.294Z,38.15
2023-02-02T00:06:35.578Z,26.65
2023-02-02T00:09:04.937Z,35.08
2023-02-02T00:11:33.204Z,45.10
2023-02-02T00:14:02.275Z,30.17
2023-02-02T00:16:53.149Z,23.77
2023-02-02T00:19:23.250Z,38.03
2023-02-02T00:21:51.671Z,37.42
2023-02-02T00:24:20.713Z,31.25
2023-02-02T00:26:50.909Z,44.40
2023-02-02T00:29:21.719Z,43.50
2023-02-02T00:31:50.093Z,38.67
2023-02-02T00:34:19.985Z,33.05
2023-02-02T00:36:49.343Z,46.15
2023-02-02T00:39:20.682Z,36.78
2023-02-02T00:41:48.987Z,44.78
2023-02-02T00:44:34.644Z,53.63
2023-02-02T00:47:04.979Z,45.15
2023-02-02T00:49:34.385Z,28.25
2023-02-02T00:52:02.453Z,36.42
2023-02-02T00:54:31.504Z,40.25
2023-02-02T00:56:59.536Z,37.30
2023-02-02T00:59:27.543Z,48.50
2023-02-02T01:01:55.858Z,48.25
2023-02-02T01:04:24.164Z,45.88
2023-02-02T01:06:53.495Z,38.38
2023-02-02T01:09:22.655Z,46.20
2023-02-02T01:11:52.310Z,45.55
2023-02-02T01:14:22.676Z,49.10
2023-02-02T01:16:52.106Z,35.42
2023-02-02T01:19:21.335Z,50.50
2023-02-02T01:21:52.326Z,34.92
2023-02-02T01:24:24.347Z,35.40
2023-02-02T01:26:54.056Z,44.92
2023-02-02T01:29:23.675Z,40.85
2023-02-02T01:31:53.680Z,35.00
2023-02-02T01:34:21.989Z,35.38
2023-02-02T01:36:50.328Z,40.08
2023-02-02T01:39:18.339Z,42.65
2023-02-02T01:41:48.140Z,39.45
2023-02-02T01:44:53.320Z,44.33
2023-02-02T01:47:24.719Z,31.48
2023-02-02T01:49:54.737Z,45.97
2023-02-02T01:52:25.363Z,31.35
2023-02-02T01:54:57.789Z,41.03
2023-02-02T01:57:32.076Z,47.67
2023-02-02T02:00:04.454Z,42.80
2023-02-02T02:02:46.260Z,41.53
2023-02-02T02:05:20.149Z,43.78
2023-02-02T02:07:50.789Z,44.17
2023-02-02T02:10:20.595Z,31.30
2023-02-02T02:12:50.301Z,35.40
2023-02-02T02:15:35.979Z,47.25
2023-02-02T02:18:28.789Z,43.22
2023-02-02T02:21:47.855Z,41.33
2023-02-02T02:25:36.554Z,34.28
2023-02-02T02:28:31.280Z,43.25
2023-02-02T02:31:18.903Z,40.05
2023-02-02T02:33:55.414Z,37.95
2023-02-02T02:36:32.461Z,31.33
2023-02-02T02:39:07.851Z,28.52
2023-02-02T02:41:40.956Z,36.95
2023-02-02T02:46:39.928Z,28.45
2023-02-02T02:49:12.775Z,54.88
2023-02-02T02:51:45.179Z,48.90
2023-02-02T02:54:19.835Z,38.78
2023-02-02T02:57:11.561Z,40.17
2023-02-02T02:59:53.321Z,43.83
2023-02-02T03:02:35.565Z,43.50
2023-02-02T03:05:17.979Z,31.33
2023-02-02T03:07:51.828Z,36.05
2023-02-02T03:12:53.343Z,42.10
2023-02-02T03:15:22.104Z,49.67
2023-02-02T03:17:52.527Z,50.47
2023-02-02T03:20:22.264Z,44.53
2023-02-02T03:22:50.697Z,42.67
2023-02-02T03:25:18.843Z,45.97
2023-02-02T03:27:47.807Z,39.25
2023-02-02T03:30:17.383Z,43.13
2023-02-02T03:32:45.845Z,37.45
2023-02-02T03:35:14.242Z,40.20
2023-02-02T03:37:44.371Z,47.45
2023-02-02T03:40:13.322Z,40.67
2023-02-02T03:42:41.617Z,38.75
2023-02-02T03:45:11.177Z,34.92
2023-02-02T03:47:42.049Z,35.10
2023-02-02T03:50:11.829Z,33.13
2023-02-02T03:52:40.256Z,28.10
2023-02-02T03:55:11.140Z,23.38
2023-02-02T03:57:40.392Z,21.63
2023-02-02T04:00:10.422Z,28.30
2023-02-02T04:02:40.916Z,19.80
2023-02-02T04:05:10.066Z,20.30
2023-02-02T04:07:38.171Z,9.48
2023-02-02T04:10:07.121Z,17.13
2023-02-02T04:12:37.261Z,12.63
2023-02-02T04:15:07.170Z,8.75
2023-02-02T04:17:36.416Z,11.95
2023-02-02T04:20:05.974Z,8.68
2023-02-02T04:22:35.286Z,9.10
2023-02-02T04:25:03.472Z,5.25
2023-02-02T04:27:33.896Z,5.97
2023-02-02T04:30:03.358Z,20.10
2023-02-02T04:32:33.324Z,7.18
2023-02-02T04:35:01.285Z,7.43
2023-02-02T04:37:32.208Z,10.45
2023-02-02T04:40:00.441Z,9.02
2023-02-02T04:42:28.552Z,7.40
2023-02-02T04:44:56.821Z,13.50
2023-02-02T04:47:26.387Z,12.18
2023-02-02T04:49:54.907Z,5.15
2023-02-02T04:52:23.340Z,9.18
2023-02-02T04:54:51.282Z,11.50
2023-02-02T04:57:19.299Z,13.30
2023-02-02T04:59:47.692Z,9.15
2023-02-02T05:02:15.696Z,13.57
2023-02-02T05:04:45.148Z,11.82
2023-02-02T05:07:13.327Z,10.60
2023-02-02T05:09:43.260Z,15.68
2023-02-02T05:12:11.680Z,9.70
2023-02-02T05:14:40.533Z,11.43
2023-02-02T05:17:08.579Z,9.07
2023-02-02T05:19:36.892Z,4.88
2023-02-02T05:22:06.533Z,10.02
2023-02-02T05:24:34.655Z,9.48
2023-02-02T05:27:02.838Z,14.63
2023-02-02T05:29:32.288Z,16.40
2023-02-02T05:32:00.652Z,14.10
2023-02-02T05:34:28.952Z,8.00
2023-02-02T05:36:57.592Z,5.45
2023-02-02T05:39:27.527Z,9.10
2023-02-02T05:41:55.524Z,6.47
2023-02-02T05:44:23.738Z,8.55
2023-02-02T05:46:52.594Z,4.97
2023-02-02T05:49:21.120Z,11.52
2023-02-02T05:51:52.737Z,6.72
2023-02-02T05:54:20.834Z,6.22
2023-02-02T05:56:52.369Z,4.15
2023-02-02T05:59:20.597Z,6.85
2023-02-02T06:01:49.403Z,8.45
2023-02-02T06:04:18.011Z,9.43
2023-02-02T06:06:47.900Z,6.03
2023-02-02T06:09:16.101Z,5.60
2023-02-02T06:11:44.922Z,17.88
2023-02-02T06:14:17.102Z,4.93
2023-02-02T06:16:45.282Z,9.10
2023-02-02T06:19:13.452Z,7.57
2023-02-02T06:21:42.068Z,7.57
2023-02-02T06:24:10.338Z,9.23
2023-02-02T06:26:38.692Z,17.48
2023-02-02T06:29:06.895Z,10.68
2023-02-02T06:31:36.485Z,7.47
2023-02-02T06:34:05.093Z,14.50
2023-02-02T06:36:33.107Z,13.30
2023-02-02T06:39:02.410Z,10.35
2023-02-02T06:41:31.532Z,11.32
2023-02-02T06:43:59.497Z,8.93
2023-02-02T06:46:27.942Z,15.23
2023-02-02T06:48:57.428Z,11.95
2023-02-02T06:51:25.621Z,12.88
2023-02-02T06:53:53.712Z,11.75
2023-02-02T06:56:22.943Z,14.23
2023-02-02T06:58:50.822Z,8.85
2023-02-02T07:01:19.053Z,16.92
2023-02-02T07:03:49.984Z,3.72
2023-02-02T07:06:21.388Z,8.25
2023-02-02T07:09:02.037Z,12.63
2023-02-02T07:11:35.302Z,6.22
2023-02-02T07:14:08.310Z,7.97
2023-02-02T07:16:36.580Z,8.18
2023-02-02T07:19:04.939Z,9.27
2023-02-02T07:21:36.222Z,9.05
2023-02-02T07:24:05.816Z,7.05
2023-02-02T07:26:36.104Z,9.77
2023-02-02T07:29:05.634Z,8.77
2023-02-02T07:31:36.247Z,7.63
2023-02-02T07:34:05.227Z,8.38
2023-02-02T07:36:35.189Z,8.93
2023-02-02T07:39:05.410Z,6.75
2023-02-02T07:41:35.941Z,3.05
2023-02-02T07:44:05.853Z,4.50
2023-02-02T07:46:34.762Z,6.35
2023-02-02T07:49:03.924Z,5.43
2023-02-02T07:51:32.003Z,8.63
2023-02-02T07:54:01.521Z,13.50
2023-02-02T07:56:29.944Z,10.85
2023-02-02T07:58:58.508Z,7.50
2023-02-02T08:01:28.647Z,10.60
2023-02-02T08:04:00.386Z,7.78
2023-02-02T08:06:31.445Z,8.00
2023-02-02T08:09:01.274Z,9.00
2023-02-02T08:11:30.188Z,16.42
2023-02-02T08:13:59.888Z,8.38
2023-02-02T08:16:29.579Z,10.13
2023-02-02T08:18:58.633Z,9.18
2023-02-02T08:21:26.997Z,7.95
2023-02-02T08:23:55.264Z,6.95
2023-02-02T08:26:27.587Z,9.23
2023-02-02T08:28:57.928Z,11.07
2023-02-02T08:31:29.326Z,10.70
2023-02-02T08:33:58.566Z,6.93
2023-02-02T08:36:28.417Z,9.48
2023-02-02T08:38:56.851Z,5.80
2023-02-02T08:41:26.537Z,6.80
2023-02-02T08:43:54.695Z,3.70
2023-02-02T08:46:23.635Z,10.85
2023-02-02T08:48:51.901Z,5.93
2023-02-02T08:51:21.394Z,4.75
2023-02-02T08:53:49.899Z,5.05
2023-02-02T08:56:20.168Z,4.68
2023-02-02T08:58:51.398Z,8.23
2023-02-02T09:01:21.966Z,4.72
2023-02-02T09:03:54.073Z,4.40
2023-02-02T09:06:23.134Z,7.70
2023-02-02T09:08:51.237Z,4.75
2023-02-02T09:11:20.867Z,2.85
2023-02-02T09:13:54.054Z,1.65
2023-02-02T09:16:23.464Z,3.17
2023-02-02T09:18:51.623Z,3.20
2023-02-02T09:21:20.973Z,8.15
2023-02-02T09:23:50.247Z,8.50
2023-02-02T09:26:20.338Z,3.60
2023-02-02T09:28:51.815Z,4.32
2023-02-02T09:31:20.169Z,12.77
2023-02-02T09:33:48.999Z,4.40
2023-02-02T09:36:20.331Z,5.20
2023-02-02T09:38:49.506Z,12.10
2023-02-02T09:41:47.680Z,8.95
2023-02-02T09:44:26.455Z,5.40
2023-02-02T09:47:14.281Z,2.65
2023-02-02T09:49:53.525Z,6.05
2023-02-02T09:52:27.628Z,8.68
2023-02-02T09:55:01.607Z,4.80
2023-02-02T09:57:37.744Z,6.72
2023-02-02T10:00:17.774Z,3.05
2023-02-02T10:02:50.010Z,9.40
2023-02-02T10:05:22.840Z,8.88
2023-02-02T10:07:55.184Z,4.75
2023-02-02T10:10:27.604Z,7.30
2023-02-02T10:13:00.036Z,3.50
2023-02-02T10:15:39.463Z,5.22
2023-02-02T10:18:14.072Z,7.70
2023-02-02T10:20:47.749Z,8.43
2023-02-02T10:23:23.867Z,5.50
2023-02-02T10:25:58.364Z,5.57
2023-02-02T10:28:42.234Z,11.15
2023-02-02T10:31:20.203Z,5.43
2023-02-02T10:34:02.687Z,9.30
2023-02-02T10:36:40.473Z,10.07
2023-02-02T10:39:21.835Z,12.30
2023-02-02T10:41:57.698Z,10.60
2023-02-02T10:44:35.237Z,11.05
2023-02-02T10:47:07.519Z,6.07
2023-02-02T10:49:38.100Z,9.52
2023-02-02T10:52:16.679Z,10.65
2023-02-02T10:54:57.804Z,12.93
2023-02-02T10:57:35.233Z,8.35
2023-02-02T11:00:12.109Z,10.48
2023-02-02T11:02:41.681Z,5.50
2023-02-02T11:05:32.670Z,7.07
2023-02-02T11:08:00.734Z,13.75
2023-02-02T11:10:29.346Z,8.45
2023-02-02T11:13:01.883Z,13.85
2023-02-02T11:15:31.927Z,14.40
2023-02-02T11:18:15.903Z,17.17
2023-02-02T11:20:46.856Z,11.35
2023-02-02T11:23:20.177Z,8.77
2023-02-02T11:26:00.001Z,15.23
2023-02-02T11:28:31.678Z,8.98
2023-02-02T11:31:00.480Z,8.95
2023-02-02T11:33:33.115Z,5.18
2023-02-02T11:36:03.983Z,16.60
2023-02-02T11:38:32.774Z,10.02
2023-02-02T11:41:04.306Z,10.50
2023-02-02T11:43:36.414Z,4.53
2023-02-02T11:46:08.215Z,8.40
2023-02-02T11:48:40.493Z,6.13
2023-02-02T11:51:09.474Z,9.52
2023-02-02T11:53:48.994Z,3.45
2023-02-02T11:56:21.549Z,14.48
2023-02-02T11:58:55.494Z,10.52
2023-02-02T12:01:26.757Z,9.18
2023-02-02T12:03:57.904Z,9.07
2023-02-02T12:06:28.404Z,8.65
2023-02-02T12:09:01.277Z,12.95
2023-02-02T12:11:43.913Z,10.85
2023-02-02T12:14:24.243Z,9.43
2023-02-02T12:17:03.943Z,10.15
2023-02-02T12:19:58.210Z,12.88
2023-02-02T12:22:42.315Z,8.93
2023-02-02T12:25:36.724Z,20.20
2023-02-02T12:28:18.112Z,14.35
2023-02-02T12:30:55.113Z,10.80
2023-02-02T12:33:34.392Z,7.85
2023-02-02T12:36:21.506Z,10.55
2023-02-02T12:39:12.031Z,9.45
2023-02-02T12:42:02.496Z,9.77
2023-02-02T12:44:39.073Z,8.07
2023-02-02T12:47:18.672Z,8.32
2023-02-02T12:50:05.667Z,8.50
2023-02-02T12:52:49.991Z,10.43
2023-02-02T12:55:31.201Z,6.20
2023-02-02T12:58:07.684Z,6.50
2023-02-02T13:00:54.208Z,8.93
2023-02-02T13:03:37.192Z,6.50
2023-02-02T13:06:29.733Z,8.05
2023-02-02T13:09:04.988Z,7.43
2023-02-02T13:11:40.156Z,11.05
2023-02-02T13:14:12.548Z,12.88
2023-02-02T13:16:44.322Z,8.60
2023-02-02T13:19:19.292Z,7.32
2023-02-02T13:21:49.254Z,9.90
2023-02-02T13:24:31.120Z,7.35
2023-02-02T13:27:02.630Z,6.40
2023-02-02T13:29:43.590Z,14.32
2023-02-02T13:32:22.455Z,7.38
2023-02-02T13:34:54.666Z,7.38
2023-02-02T13:37:36.927Z,5.90
2023-02-02T13:40:24.130Z,16.63
2023-02-02T13:42:59.535Z,6.95
2023-02-02T13:45:41.399Z,13.18
2023-02-02T13:48:22.513Z,9.48
2023-02-02T13:51:22.440Z,9.40
2023-02-02T13:54:13.039Z,11.82
2023-02-02T13:56:49.969Z,11.63
2023-02-02T13:59:38.818Z,10.75
2023-02-02T14:02:23.602Z,9.60
2023-02-02T14:04:57.610Z,6.60
2023-02-02T14:07:35.032Z,7.97
2023-02-02T14:10:04.761Z,9.32
2023-02-02T14:12:36.835Z,4.47
2023-02-02T14:15:07.519Z,6.80
2023-02-02T14:17:54.594Z,9.25
2023-02-02T14:20:49.123Z,5.03
2023-02-02T14:23:51.592Z,8.38
2023-02-02T14:26:37.221Z,8.55
2023-02-02T14:29:36.808Z,10.65
2023-02-02T14:32:34.356Z,7.43
2023-02-02T14:35:41.359Z,6.03
2023-02-02T14:38:14.465Z,5.22
2023-02-02T14:40:52.714Z,7.45
2023-02-02T14:43:46.258Z,8.98
2023-02-02T14:46:24.589Z,4.38
2023-02-02T14:49:13.334Z,5.47
2023-02-02T14:51:51.988Z,5.35
2023-02-02T14:54:26.230Z,9.00
2023-02-02T14:56:58.291Z,7.72
2023-02-02T14:59:31.378Z,6.90
2023-02-02T15:02:16.187Z,6.75
2023-02-02T15:04:45.159Z,7.72
2023-02-02T15:07:55.360Z,8.05
2023-02-02T15:11:22.854Z,10.23
2023-02-02T15:14:07.495Z,6.75
2023-02-02T15:16:40.629Z,5.13
2023-02-02T15:19:18.831Z,11.13
2023-02-02T15:21:50.438Z,9.85
2023-02-02T15:24:24.000Z,9.02
2023-02-02T15:29:34.452Z,11.55
2023-02-02T15:32:04.791Z,18.42
2023-02-02T15:34:41.553Z,15.95
2023-02-02T15:37:15.894Z,17.23
2023-02-02T15:39:49.159Z,15.15
2023-02-02T15:42:37.863Z,21.48
2023-02-02T15:45:07.557Z,15.65
2023-02-02T15:47:42.255Z,17.60
2023-02-02T15:50:20.803Z,30.65
2023-02-02T15:52:50.607Z,24.20
2023-02-02T15:55:24.256Z,29.02
2023-02-02T15:57:55.639Z,27.33
2023-02-02T16:00:27.558Z,25.70
2023-02-02T16:03:01.586Z,32.83
2023-02-02T16:05:46.316Z,24.85
2023-02-02T16:08:20.033Z,37.38
2023-02-02T16:10:50.260Z,27.73
2023-02-02T16:13:24.963Z,37.40
2023-02-02T16:15:58.750Z,26.73
2023-02-02T16:18:27.523Z,27.70
2023-02-02T16:21:00.160Z,26.00
2023-02-02T16:23:32.411Z,26.93
2023-02-02T16:26:03.979Z,31.13
2023-02-02T16:28:33.233Z,19.15
2023-02-02T16:31:02.800Z,28.35
2023-02-02T16:33:38.959Z,24.48
2023-02-02T16:36:25.162Z,17.10
2023-02-02T16:38:55.546Z,17.00
2023-02-02T16:41:33.801Z,16.90
2023-02-02T16:44:30.579Z,24.90
2023-02-02T16:47:01.753Z,20.83
2023-02-02T16:49:31.414Z,24.13
2023-02-02T16:52:16.230Z,22.50
2023-02-02T16:54:52.829Z,24.58
2023-02-02T16:57:24.068Z,30.35
2023-02-02T16:59:54.661Z,22.10
2023-02-02T17:02:30.471Z,26.95
2023-02-02T17:05:04.803Z,23.83
2023-02-02T17:07:38.268Z,35.95
2023-02-02T17:10:23.888Z,27.98
2023-02-02T17:12:51.852Z,35.90
2023-02-02T17:15:34.697Z,33.25
2023-02-02T17:18:05.055Z,30.90
2023-02-02T17:20:34.630Z,33.28
2023-02-02T17:23:09.890Z,32.63
2023-02-02T17:25:41.925Z,33.35
2023-02-02T17:28:12.705Z,39.83
2023-02-02T17:30:42.159Z,34.78
2023-02-02T17:33:14.698Z,24.75
2023-02-02T17:35:53.579Z,28.47
2023-02-02T17:38:27.649Z,34.53
2023-02-02T17:41:00.854Z,37.05
2023-02-02T17:43:29.928Z,32.05
2023-02-02T17:45:58.088Z,31.35
2023-02-02T17:48:26.544Z,31.73
2023-02-02T17:50:54.603Z,30.70
2023-02-02T17:53:25.298Z,32.33
2023-02-02T17:55:53.719Z,27.33
2023-02-02T17:58:21.834Z,36.40
2023-02-02T18:00:54.427Z,32.33
2023-02-02T18:03:25.917Z,38.50
2023-02-02T18:05:54.353Z,34.63
2023-02-02T18:08:22.662Z,34.83
2023-02-02T18:10:52.520Z,36.63
2023-02-02T18:13:22.684Z,38.90
2023-02-02T18:15:52.136Z,32.13
2023-02-02T18:18:20.231Z,32.67
2023-02-02T18:20:49.647Z,35.92
2023-02-02T18:23:19.913Z,25.58
2023-02-02T18:25:48.487Z,30.25
2023-02-02T18:28:18.202Z,31.70
2023-02-02T18:30:46.498Z,27.02
2023-02-02T18:33:17.277Z,37.40
2023-02-02T18:35:46.696Z,23.27
2023-02-02T18:38:15.637Z,42.75
2023-02-02T18:40:44.138Z,43.58
2023-02-02T18:43:12.394Z,27.85
2023-02-02T18:45:42.066Z,29.50
2023-02-02T18:48:10.261Z,28.13
2023-02-02T18:50:38.420Z,32.70
2023-02-02T18:53:07.592Z,32.00
2023-02-02T18:55:38.240Z,36.67
2023-02-02T18:58:07.889Z,24.60
2023-02-02T19:00:35.872Z,27.25
2023-02-02T19:03:06.693Z,28.17
2023-02-02T19:05:52.541Z,23.98
2023-02-02T19:08:21.265Z,32.75
2023-02-02T19:10:49.790Z,39.92
2023-02-02T19:13:20.403Z,22.98
2023-02-02T19:15:50.536Z,18.48
2023-02-02T19:18:22.417Z,23.55
2023-02-02T19:20:52.672Z,32.65
2023-02-02T19:23:23.321Z,29.15
2023-02-02T19:25:54.077Z,22.27
2023-02-02T19:28:24.270Z,27.90
2023-02-02T19:30:54.134Z,26.88
2023-02-02T19:33:29.633Z,20.85
2023-02-02T19:35:57.691Z,17.58
2023-02-02T19:38:30.192Z,34.20
2023-02-02T19:41:02.395Z,18.88
2023-02-02T19:43:33.371Z,20.60
2023-02-02T19:46:04.300Z,20.25
2023-02-02T19:48:36.733Z,24.13
2023-02-02T19:51:28.429Z,21.63
2023-02-02T19:54:02.624Z,18.30
2023-02-02T19:56:39.746Z,14.18
2023-02-02T19:59:14.556Z,17.33
2023-02-02T20:01:45.951Z,22.30
2023-02-02T20:04:15.874Z,20.30
2023-02-02T20:06:58.484Z,11.13
2023-02-02T20:09:34.700Z,18.20
2023-02-02T20:12:19.290Z,14.32
2023-02-02T20:14:49.199Z,13.70
2023-02-02T20:17:23.772Z,13.25
2023-02-02T20:19:53.189Z,18.25
2023-02-02T20:22:25.865Z,14.07
2023-02-02T20:24:56.635Z,14.23
2023-02-02T20:27:29.131Z,12.52
2023-02-02T20:30:01.515Z,14.85
2023-02-02T20:32:41.560Z,18.05
2023-02-02T20:35:25.288Z,13.82
2023-02-02T20:37:55.792Z,11.68
2023-02-02T20:40:26.735Z,16.30
2023-02-02T20:42:55.074Z,12.07
2023-02-02T20:45:23.053Z,22.42
2023-02-02T20:47:51.905Z,7.15
2023-02-02T20:50:23.784Z,13.90
2023-02-02T20:52:53.543Z,18.67
2023-02-02T20:55:22.608Z,15.52
2023-02-02T20:57:50.781Z,8.23
2023-02-02T21:00:21.433Z,11.38
2023-02-02T21:02:49.837Z,13.30
2023-02-02T21:05:18.169Z,15.73
2023-02-02T21:07:47.870Z,17.17
2023-02-02T21:10:16.406Z,9.60
2023-02-02T21:12:45.822Z,11.00
2023-02-02T21:15:16.060Z,10.57
2023-02-02T21:17:45.248Z,9.63
2023-02-02T21:20:15.330Z,15.77
2023-02-02T21:22:43.825Z,14.73
2023-02-02T21:25:13.814Z,10.40
2023-02-02T21:27:42.130Z,16.48
2023-02-02T21:30:12.542Z,17.73
2023-02-02T21:32:40.552Z,19.10
2023-02-02T21:35:09.660Z,9.80
2023-02-02T21:37:38.208Z,13.38
2023-02-02T21:40:15.388Z,12.25
2023-02-02T21:42:48.804Z,10.23
2023-02-02T21:45:34.548Z,15.68
2023-02-02T21:48:06.345Z,13.27
2023-02-02T21:50:37.935Z,16.23
2023-02-02T21:53:24.148Z,10.77
2023-02-02T21:55:55.436Z,14.65
2023-02-02T21:58:26.082Z,13.35
2023-02-02T22:00:55.266Z,10.32
2023-02-02T22:03:30.659Z,12.30
2023-02-02T22:06:19.773Z,14.75
2023-02-02T22:08:48.587Z,12.38
2023-02-02T22:11:29.300Z,10.27
2023-02-02T22:14:02.646Z,16.08
2023-02-02T22:19:27.659Z,18.83
2023-02-02T22:22:11.098Z,12.80
2023-02-02T22:24:39.309Z,11.75
2023-02-02T22:27:18.167Z,7.90
2023-02-02T22:29:46.897Z,11.98
2023-02-02T22:32:15.060Z,12.15
2023-02-02T22:34:43.633Z,7.45
2023-02-02T22:37:11.659Z,19.23
2023-02-02T22:39:42.801Z,11.23
2023-02-02T22:42:12.290Z,13.75
2023-02-02T22:44:40.519Z,15.48
2023-02-02T22:47:08.433Z,9.23
2023-02-02T22:49:36.322Z,14.43
2023-02-02T22:52:04.748Z,10.18
2023-02-02T22:54:32.821Z,11.63
2023-02-02T22:57:00.983Z,8.75
2023-02-02T22:59:30.404Z,10.20
2023-02-02T23:01:58.450Z,9.23
2023-02-02T23:04:26.904Z,8.25
2023-02-02T23:06:55.110Z,8.63
2023-02-02T23:09:23.745Z,7.75
2023-02-02T23:11:51.873Z,9.82
2023-02-02T23:14:20.194Z,7.88
2023-02-02T23:16:50.005Z,6.18
2023-02-02T23:19:18.540Z,10.00
2023-02-02T23:21:46.437Z,9.25
2023-02-02T23:24:14.390Z,7.05
2023-02-02T23:26:42.413Z,10.13
2023-02-02T23:29:10.414Z,20.13
2023-02-02T23:31:38.442Z,8.73
2023-02-02T23:34:07.765Z,7.80
2023-02-02T23:36:35.794Z,10.57
2023-02-02T23:39:03.926Z,8.10
2023-02-02T23:41:31.926Z,16.85
2023-02-02T23:44:00.159Z,11.10
2023-02-02T23:46:28.434Z,13.55
2023-02-02T23:48:57.238Z,11.90
2023-02-02T23:51:27.237Z,11.25
2023-02-02T23:53:55.695Z,8.52
2023-02-02T23:56:23.776Z,9.00
2023-02-02T23:58:51.705Z,13.23
